sensor_id;sensor_type;location;lat;lon;timestamp;pressure;altitude;pressure_sealevel;temperature;humidity
42385;BME280;28042;43.986;22.860;2022-08-07T00:00:04;100704.63;;;27.29;47.18
42385;BME280;28042;43.986;22.860;2022-08-07T00:02:30;100705.84;;;27.23;47.41
42385;BME280;28042;43.986;22.860;2022-08-07T00:04:55;100701.09;;;27.24;46.99
42385;BME280;28042;43.986;22.860;2022-08-07T00:07:20;100709.16;;;27.25;47.05
42385;BME280;28042;43.986;22.860;2022-08-07T00:09:46;100724.31;;;27.24;46.75
42385;BME280;28042;43.986;22.860;2022-08-07T00:12:11;100724.31;;;27.24;47.00
42385;BME280;28042;43.986;22.860;2022-08-07T00:14:36;100732.72;;;27.24;47.22
42385;BME280;28042;43.986;22.860;2022-08-07T00:17:02;100738.13;;;27.21;47.34
42385;BME280;28042;43.986;22.860;2022-08-07T00:19:27;100741.31;;;27.14;47.41
42385;BME280;28042;43.986;22.860;2022-08-07T00:21:55;100729.06;;;27.10;47.78
42385;BME280;28042;43.986;22.860;2022-08-07T00:24:20;100733.38;;;27.02;48.42
42385;BME280;28042;43.986;22.860;2022-08-07T00:26:45;100731.50;;;26.98;48.89
42385;BME280;28042;43.986;22.860;2022-08-07T00:29:11;100726.50;;;26.95;49.03
42385;BME280;28042;43.986;22.860;2022-08-07T00:31:36;100731.88;;;26.91;49.12
42385;BME280;28042;43.986;22.860;2022-08-07T00:34:01;100747.41;;;26.84;49.33
42385;BME280;28042;43.986;22.860;2022-08-07T00:36:27;100749.34;;;26.69;50.17
42385;BME280;28042;43.986;22.860;2022-08-07T00:38:53;100747.44;;;26.65;50.21
42385;BME280;28042;43.986;22.860;2022-08-07T00:41:24;100748.44;;;26.55;50.32
42385;BME280;28042;43.986;22.860;2022-08-07T00:43:49;100748.81;;;26.48;50.62
42385;BME280;28042;43.986;22.860;2022-08-07T00:46:14;100753.25;;;26.49;50.51
42385;BME280;28042;43.986;22.860;2022-08-07T00:48:40;100761.06;;;26.53;50.15
42385;BME280;28042;43.986;22.860;2022-08-07T00:51:05;100762.22;;;26.52;49.91
42385;BME280;28042;43.986;22.860;2022-08-07T00:53:32;100773.16;;;26.48;50.07
42385;BME280;28042;43.986;22.860;2022-08-07T00:55:57;100764.03;;;26.42;50.04
42385;BME280;28042;43.986;22.860;2022-08-07T00:58:23;100769.91;;;26.41;50.11
42385;BME280;28042;43.986;22.860;2022-08-07T01:00:48;100772.75;;;26.36;50.34
42385;BME280;28042;43.986;22.860;2022-08-07T01:03:14;100771.41;;;26.33;50.68
42385;BME280;28042;43.986;22.860;2022-08-07T01:05:40;100769.88;;;26.22;51.33
42385;BME280;28042;43.986;22.860;2022-08-07T01:08:06;100773.56;;;26.17;51.65
42385;BME280;28042;43.986;22.860;2022-08-07T01:10:32;100774.91;;;26.01;52.54
42385;BME280;28042;43.986;22.860;2022-08-07T01:12:57;100763.78;;;25.96;52.96
42385;BME280;28042;43.986;22.860;2022-08-07T01:15:22;100768.38;;;25.87;53.56
42385;BME280;28042;43.986;22.860;2022-08-07T01:17:49;100786.34;;;25.81;54.31
42385;BME280;28042;43.986;22.860;2022-08-07T01:20:14;100787.53;;;25.75;54.81
42385;BME280;28042;43.986;22.860;2022-08-07T01:22:40;100790.34;;;25.70;55.51
42385;BME280;28042;43.986;22.860;2022-08-07T01:25:06;100795.69;;;25.66;55.90
42385;BME280;28042;43.986;22.860;2022-08-07T01:27:32;100792.13;;;25.60;56.44
42385;BME280;28042;43.986;22.860;2022-08-07T01:29:57;100792.22;;;25.50;57.16
42385;BME280;28042;43.986;22.860;2022-08-07T01:32:23;100794.00;;;25.41;57.85
42385;BME280;28042;43.986;22.860;2022-08-07T01:34:49;100781.16;;;25.40;57.96
42385;BME280;28042;43.986;22.860;2022-08-07T01:37:15;100783.66;;;25.42;58.26
42385;BME280;28042;43.986;22.860;2022-08-07T01:39:42;100782.00;;;25.41;58.40
42385;BME280;28042;43.986;22.860;2022-08-07T01:42:07;100787.28;;;25.42;58.42
42385;BME280;28042;43.986;22.860;2022-08-07T01:44:33;100783.13;;;25.40;58.89
42385;BME280;28042;43.986;22.860;2022-08-07T01:46:58;100788.47;;;25.36;59.20
42385;BME280;28042;43.986;22.860;2022-08-07T01:49:23;100787.63;;;25.35;59.17
42385;BME280;28042;43.986;22.860;2022-08-07T01:51:48;100790.78;;;25.29;59.70
42385;BME280;28042;43.986;22.860;2022-08-07T01:54:14;100786.88;;;25.30;59.98
42385;BME280;28042;43.986;22.860;2022-08-07T01:56:59;100794.69;;;25.28;60.05
42385;BME280;28042;43.986;22.860;2022-08-07T01:59:38;100807.56;;;25.24;60.45
42385;BME280;28042;43.986;22.860;2022-08-07T02:02:06;100805.38;;;25.21;60.92
42385;BME280;28042;43.986;22.860;2022-08-07T02:07:03;100809.34;;;25.15;61.37
42385;BME280;28042;43.986;22.860;2022-08-07T02:09:30;100812.72;;;25.12;61.57
42385;BME280;28042;43.986;22.860;2022-08-07T02:11:56;100812.97;;;25.15;61.56
42385;BME280;28042;43.986;22.860;2022-08-07T02:14:23;100811.53;;;25.18;61.36
42385;BME280;28042;43.986;22.860;2022-08-07T02:16:50;100809.56;;;25.18;61.83
42385;BME280;28042;43.986;22.860;2022-08-07T02:19:17;100813.19;;;25.19;61.74
42385;BME280;28042;43.986;22.860;2022-08-07T02:21:44;100805.94;;;25.18;61.80
42385;BME280;28042;43.986;22.860;2022-08-07T02:24:09;100812.66;;;25.17;61.91
42385;BME280;28042;43.986;22.860;2022-08-07T02:26:37;100815.44;;;25.17;61.99
42385;BME280;28042;43.986;22.860;2022-08-07T02:29:04;100813.19;;;25.19;62.00
42385;BME280;28042;43.986;22.860;2022-08-07T02:31:30;100819.69;;;25.09;62.34
42385;BME280;28042;43.986;22.860;2022-08-07T02:33:56;100817.22;;;25.07;62.46
42385;BME280;28042;43.986;22.860;2022-08-07T02:36:22;100827.84;;;25.00;62.80
42385;BME280;28042;43.986;22.860;2022-08-07T02:38:48;100828.44;;;24.97;62.94
42385;BME280;28042;43.986;22.860;2022-08-07T02:41:15;100827.84;;;25.00;62.74
42385;BME280;28042;43.986;22.860;2022-08-07T02:43:41;100824.84;;;24.92;63.20
42385;BME280;28042;43.986;22.860;2022-08-07T02:46:07;100824.50;;;24.98;62.97
42385;BME280;28042;43.986;22.860;2022-08-07T02:48:35;100837.66;;;24.93;63.14
42385;BME280;28042;43.986;22.860;2022-08-07T02:51:02;100825.66;;;24.92;63.40
42385;BME280;28042;43.986;22.860;2022-08-07T02:53:32;100829.03;;;24.94;63.42
42385;BME280;28042;43.986;22.860;2022-08-07T02:55:58;100833.50;;;24.90;63.56
42385;BME280;28042;43.986;22.860;2022-08-07T02:58:25;100828.31;;;24.73;63.55
42385;BME280;28042;43.986;22.860;2022-08-07T03:00:53;100833.13;;;24.63;63.10
42385;BME280;28042;43.986;22.860;2022-08-07T03:03:19;100840.19;;;24.50;62.66
42385;BME280;28042;43.986;22.860;2022-08-07T03:05:45;100846.69;;;24.35;62.97
42385;BME280;28042;43.986;22.860;2022-08-07T03:08:11;100854.78;;;24.21;62.22
42385;BME280;28042;43.986;22.860;2022-08-07T03:10:37;100855.13;;;24.05;62.07
42385;BME280;28042;43.986;22.860;2022-08-07T03:13:03;100854.06;;;23.80;62.06
42385;BME280;28042;43.986;22.860;2022-08-07T03:15:28;100866.91;;;23.56;62.98
42385;BME280;28042;43.986;22.860;2022-08-07T03:17:54;100871.09;;;23.38;63.72
42385;BME280;28042;43.986;22.860;2022-08-07T03:20:20;100863.00;;;23.36;63.90
42385;BME280;28042;43.986;22.860;2022-08-07T03:22:46;100871.38;;;23.26;64.39
42385;BME280;28042;43.986;22.860;2022-08-07T03:25:13;100872.19;;;23.27;64.49
42385;BME280;28042;43.986;22.860;2022-08-07T03:27:39;100860.81;;;23.23;64.09
42385;BME280;28042;43.986;22.860;2022-08-07T03:30:06;100867.47;;;23.27;64.41
42385;BME280;28042;43.986;22.860;2022-08-07T03:32:38;100864.97;;;23.26;64.43
42385;BME280;28042;43.986;22.860;2022-08-07T03:35:04;100864.13;;;23.35;64.23
42385;BME280;28042;43.986;22.860;2022-08-07T03:37:32;100859.69;;;23.29;64.78
42385;BME280;28042;43.986;22.860;2022-08-07T03:39:59;100857.44;;;23.36;65.00
42385;BME280;28042;43.986;22.860;2022-08-07T03:42:24;100851.03;;;23.51;64.77
42385;BME280;28042;43.986;22.860;2022-08-07T03:44:50;100845.19;;;23.68;64.27
42385;BME280;28042;43.986;22.860;2022-08-07T03:47:16;100854.06;;;23.80;63.94
42385;BME280;28042;43.986;22.860;2022-08-07T03:49:42;100849.88;;;23.88;63.68
42385;BME280;28042;43.986;22.860;2022-08-07T03:52:08;100850.69;;;23.99;63.53
42385;BME280;28042;43.986;22.860;2022-08-07T03:54:34;100842.84;;;24.11;63.50
42385;BME280;28042;43.986;22.860;2022-08-07T03:56:59;100842.25;;;24.24;63.16
42385;BME280;28042;43.986;22.860;2022-08-07T03:59:25;100840.56;;;24.33;62.91
42385;BME280;28042;43.986;22.860;2022-08-07T04:01:52;100843.84;;;24.45;62.69
42385;BME280;28042;43.986;22.860;2022-08-07T04:04:18;100849.09;;;24.52;62.48
42385;BME280;28042;43.986;22.860;2022-08-07T04:06:44;100854.94;;;24.56;62.10
42385;BME280;28042;43.986;22.860;2022-08-07T04:09:10;100844.88;;;24.60;61.85
42385;BME280;28042;43.986;22.860;2022-08-07T04:11:36;100839.84;;;24.57;61.85
42385;BME280;28042;43.986;22.860;2022-08-07T04:14:02;100851.59;;;24.53;62.76
42385;BME280;28042;43.986;22.860;2022-08-07T04:16:28;100849.47;;;24.35;63.39
42385;BME280;28042;43.986;22.860;2022-08-07T04:18:53;100856.72;;;24.26;63.33
42385;BME280;28042;43.986;22.860;2022-08-07T04:21:21;100860.69;;;24.05;63.53
42385;BME280;28042;43.986;22.860;2022-08-07T04:23:46;100864.59;;;24.04;63.34
42385;BME280;28042;43.986;22.860;2022-08-07T04:26:12;100868.50;;;24.03;63.29
42385;BME280;28042;43.986;22.860;2022-08-07T04:28:38;100864.66;;;23.83;64.08
42385;BME280;28042;43.986;22.860;2022-08-07T04:31:04;100870.25;;;23.83;64.00
42385;BME280;28042;43.986;22.860;2022-08-07T04:33:29;100881.38;;;23.78;64.07
42385;BME280;28042;43.986;22.860;2022-08-07T04:35:55;100892.81;;;23.72;63.99
42385;BME280;28042;43.986;22.860;2022-08-07T04:38:20;100884.19;;;23.73;64.11
42385;BME280;28042;43.986;22.860;2022-08-07T04:40:46;100892.81;;;23.77;63.48
42385;BME280;28042;43.986;22.860;2022-08-07T04:43:12;100887.53;;;23.75;63.64
42385;BME280;28042;43.986;22.860;2022-08-07T04:45:47;100891.41;;;23.79;62.89
42385;BME280;28042;43.986;22.860;2022-08-07T04:48:17;100900.88;;;23.83;62.46
42385;BME280;28042;43.986;22.860;2022-08-07T04:50:55;100893.06;;;23.85;62.51
42385;BME280;28042;43.986;22.860;2022-08-07T04:53:33;100894.16;;;23.94;62.16
42385;BME280;28042;43.986;22.860;2022-08-07T04:56:08;100889.72;;;23.99;62.41
42385;BME280;28042;43.986;22.860;2022-08-07T04:58:45;100897.50;;;24.07;62.42
42385;BME280;28042;43.986;22.860;2022-08-07T05:01:13;100887.97;;;24.13;62.54
42385;BME280;28042;43.986;22.860;2022-08-07T05:04:02;100901.31;;;24.31;62.05
42385;BME280;28042;43.986;22.860;2022-08-07T05:06:37;100908.00;;;24.40;61.90
42385;BME280;28042;43.986;22.860;2022-08-07T05:11:53;100911.56;;;24.56;61.88
42385;BME280;28042;43.986;22.860;2022-08-07T05:16:49;100918.91;;;24.91;60.84
42385;BME280;28042;43.986;22.860;2022-08-07T05:19:17;100922.75;;;25.00;60.91
42385;BME280;28042;43.986;22.860;2022-08-07T05:21:46;100921.84;;;25.20;60.71
42385;BME280;28042;43.986;22.860;2022-08-07T05:24:13;100922.97;;;25.14;61.68
42385;BME280;28042;43.986;22.860;2022-08-07T05:26:41;100921.44;;;25.37;60.73
42385;BME280;28042;43.986;22.860;2022-08-07T05:29:07;100917.91;;;25.55;60.20
42385;BME280;28042;43.986;22.860;2022-08-07T05:31:35;100917.22;;;25.69;59.99
42385;BME280;28042;43.986;22.860;2022-08-07T05:34:02;100924.47;;;25.75;60.00
42385;BME280;28042;43.986;22.860;2022-08-07T05:36:29;100918.81;;;25.80;59.89
42385;BME280;28042;43.986;22.860;2022-08-07T05:38:57;100916.00;;;25.85;59.28
42385;BME280;28042;43.986;22.860;2022-08-07T05:41:23;100920.41;;;25.91;58.85
42385;BME280;28042;43.986;22.860;2022-08-07T05:43:50;100929.44;;;25.83;58.90
42385;BME280;28042;43.986;22.860;2022-08-07T05:46:18;100930.19;;;25.88;58.29
42385;BME280;28042;43.986;22.860;2022-08-07T05:48:43;100934.53;;;25.76;58.27
42385;BME280;28042;43.986;22.860;2022-08-07T05:51:09;100934.59;;;25.65;58.90
42385;BME280;28042;43.986;22.860;2022-08-07T05:53:35;100939.50;;;25.79;58.54
42385;BME280;28042;43.986;22.860;2022-08-07T05:56:00;100942.78;;;25.91;58.26
42385;BME280;28042;43.986;22.860;2022-08-07T05:58:26;100954.91;;;26.05;58.54
42385;BME280;28042;43.986;22.860;2022-08-07T06:00:52;100950.72;;;26.32;57.74
42385;BME280;28042;43.986;22.860;2022-08-07T06:03:18;100952.78;;;26.50;56.52
42385;BME280;28042;43.986;22.860;2022-08-07T06:05:45;100954.25;;;26.66;56.27
42385;BME280;28042;43.986;22.860;2022-08-07T06:08:11;100955.84;;;26.72;55.49
42385;BME280;28042;43.986;22.860;2022-08-07T06:10:37;100953.38;;;26.90;54.61
42385;BME280;28042;43.986;22.860;2022-08-07T06:13:02;100961.50;;;27.10;54.16
42385;BME280;28042;43.986;22.860;2022-08-07T06:15:28;100969.25;;;27.37;53.07
42385;BME280;28042;43.986;22.860;2022-08-07T06:17:53;100977.19;;;27.49;51.99
42385;BME280;28042;43.986;22.860;2022-08-07T06:20:19;100978.09;;;27.63;52.09
42385;BME280;28042;43.986;22.860;2022-08-07T06:22:47;100986.81;;;27.80;51.34
42385;BME280;28042;43.986;22.860;2022-08-07T06:25:13;100974.28;;;28.05;50.37
42385;BME280;28042;43.986;22.860;2022-08-07T06:27:38;100984.31;;;28.25;49.97
42385;BME280;28042;43.986;22.860;2022-08-07T06:30:03;100987.06;;;28.58;49.04
42385;BME280;28042;43.986;22.860;2022-08-07T06:32:29;100985.94;;;28.59;48.68
42385;BME280;28042;43.986;22.860;2022-08-07T06:34:55;100979.75;;;28.84;48.03
42385;BME280;28042;43.986;22.860;2022-08-07T06:37:20;100975.00;;;28.98;47.28
42385;BME280;28042;43.986;22.860;2022-08-07T06:39:45;100970.69;;;29.15;46.77
42385;BME280;28042;43.986;22.860;2022-08-07T06:42:14;100971.88;;;29.36;46.42
42385;BME280;28042;43.986;22.860;2022-08-07T06:44:42;100970.34;;;29.30;46.46
42385;BME280;28042;43.986;22.860;2022-08-07T06:47:08;100969.66;;;29.47;46.60
42385;BME280;28042;43.986;22.860;2022-08-07T06:49:34;100974.84;;;29.53;46.26
42385;BME280;28042;43.986;22.860;2022-08-07T06:51:59;100973.28;;;29.83;45.52
42385;BME280;28042;43.986;22.860;2022-08-07T06:54:26;100975.63;;;29.68;45.86
42385;BME280;28042;43.986;22.860;2022-08-07T06:56:55;100980.16;;;29.77;45.45
42385;BME280;28042;43.986;22.860;2022-08-07T06:59:23;100978.44;;;29.90;45.57
42385;BME280;28042;43.986;22.860;2022-08-07T07:01:50;100977.03;;;29.79;44.88
42385;BME280;28042;43.986;22.860;2022-08-07T07:04:16;100984.91;;;29.91;45.10
42385;BME280;28042;43.986;22.860;2022-08-07T07:06:42;100986.59;;;30.23;44.62
42385;BME280;28042;43.986;22.860;2022-08-07T07:09:25;100970.09;;;30.30;44.42
42385;BME280;28042;43.986;22.860;2022-08-07T07:14:26;100988.16;;;30.37;44.15
42385;BME280;28042;43.986;22.860;2022-08-07T07:16:52;100985.09;;;30.56;44.33
42385;BME280;28042;43.986;22.860;2022-08-07T07:19:22;100988.38;;;30.89;43.16
42385;BME280;28042;43.986;22.860;2022-08-07T07:21:49;100987.09;;;30.95;43.15
42385;BME280;28042;43.986;22.860;2022-08-07T07:24:16;100983.88;;;30.80;42.91
42385;BME280;28042;43.986;22.860;2022-08-07T07:26:42;100983.44;;;30.95;42.38
42385;BME280;28042;43.986;22.860;2022-08-07T07:29:10;100976.31;;;31.06;42.41
42385;BME280;28042;43.986;22.860;2022-08-07T07:31:37;100982.13;;;31.18;42.42
42385;BME280;28042;43.986;22.860;2022-08-07T07:34:05;100984.34;;;31.73;40.86
42385;BME280;28042;43.986;22.860;2022-08-07T07:36:31;100987.25;;;32.20;40.36
42385;BME280;28042;43.986;22.860;2022-08-07T07:38:57;100990.31;;;31.63;40.69
42385;BME280;28042;43.986;22.860;2022-08-07T07:41:24;100986.66;;;31.71;41.13
42385;BME280;28042;43.986;22.860;2022-08-07T07:43:51;100986.47;;;32.02;40.17
42385;BME280;28042;43.986;22.860;2022-08-07T07:46:18;100985.03;;;32.43;39.67
42385;BME280;28042;43.986;22.860;2022-08-07T07:48:47;100996.09;;;32.57;38.82
42385;BME280;28042;43.986;22.860;2022-08-07T07:51:12;100989.94;;;32.63;39.00
42385;BME280;28042;43.986;22.860;2022-08-07T07:53:40;100987.94;;;32.64;38.76
42385;BME280;28042;43.986;22.860;2022-08-07T07:56:07;100994.19;;;32.31;38.50
42385;BME280;28042;43.986;22.860;2022-08-07T07:58:34;100987.16;;;32.55;38.64
42385;BME280;28042;43.986;22.860;2022-08-07T08:01:00;101002.13;;;32.47;38.44
42385;BME280;28042;43.986;22.860;2022-08-07T08:03:27;100999.13;;;32.52;38.42
42385;BME280;28042;43.986;22.860;2022-08-07T08:05:53;100997.16;;;32.44;38.77
42385;BME280;28042;43.986;22.860;2022-08-07T08:08:19;100991.84;;;32.80;38.09
42385;BME280;28042;43.986;22.860;2022-08-07T08:10:44;100990.88;;;33.06;38.32
42385;BME280;28042;43.986;22.860;2022-08-07T08:13:10;100996.00;;;33.12;37.73
42385;BME280;28042;43.986;22.860;2022-08-07T08:15:38;100995.84;;;33.09;37.58
42385;BME280;28042;43.986;22.860;2022-08-07T08:18:07;100996.53;;;33.27;37.46
42385;BME280;28042;43.986;22.860;2022-08-07T08:20:33;101008.28;;;33.16;36.87
42385;BME280;28042;43.986;22.860;2022-08-07T08:22:59;101001.66;;;33.12;37.57
42385;BME280;28042;43.986;22.860;2022-08-07T08:25:44;100999.28;;;32.94;37.43
42385;BME280;28042;43.986;22.860;2022-08-07T08:28:29;101007.03;;;33.26;36.85
42385;BME280;28042;43.986;22.860;2022-08-07T08:30:57;101004.19;;;33.26;35.97
42385;BME280;28042;43.986;22.860;2022-08-07T08:33:32;101007.78;;;33.35;35.51
42385;BME280;28042;43.986;22.860;2022-08-07T08:35:58;100998.19;;;33.36;36.19
42385;BME280;28042;43.986;22.860;2022-08-07T08:38:25;100998.06;;;33.54;36.40
42385;BME280;28042;43.986;22.860;2022-08-07T08:40:57;100999.91;;;34.04;35.13
42385;BME280;28042;43.986;22.860;2022-08-07T08:43:34;100998.53;;;34.22;34.50
42385;BME280;28042;43.986;22.860;2022-08-07T08:46:12;100997.09;;;34.04;35.51
42385;BME280;28042;43.986;22.860;2022-08-07T08:48:41;100994.41;;;34.19;35.03
42385;BME280;28042;43.986;22.860;2022-08-07T08:56:54;100989.06;;;34.06;35.10
42385;BME280;28042;43.986;22.860;2022-08-07T08:59:26;100989.56;;;34.20;34.91
42385;BME280;28042;43.986;22.860;2022-08-07T09:04:41;100989.13;;;34.30;34.90
42385;BME280;28042;43.986;22.860;2022-08-07T09:07:31;100987.22;;;34.22;34.39
42385;BME280;28042;43.986;22.860;2022-08-07T09:12:45;100978.44;;;34.03;34.92
42385;BME280;28042;43.986;22.860;2022-08-07T09:18:13;100978.84;;;34.38;34.10
42385;BME280;28042;43.986;22.860;2022-08-07T09:23:12;100977.72;;;34.06;34.49
42385;BME280;28042;43.986;22.860;2022-08-07T09:25:46;100973.66;;;34.15;35.05
42385;BME280;28042;43.986;22.860;2022-08-07T09:28:18;100977.06;;;34.09;35.17
42385;BME280;28042;43.986;22.860;2022-08-07T09:44:12;100969.25;;;34.51;34.96
42385;BME280;28042;43.986;22.860;2022-08-07T09:46:41;100961.72;;;34.22;34.46
42385;BME280;28042;43.986;22.860;2022-08-07T09:54:11;100945.66;;;34.14;34.40
42385;BME280;28042;43.986;22.860;2022-08-07T10:09:08;100929.19;;;34.89;33.54
42385;BME280;28042;43.986;22.860;2022-08-07T10:30:02;100907.63;;;35.12;32.93
42385;BME280;28042;43.986;22.860;2022-08-07T10:35:18;100913.22;;;35.37;32.54
42385;BME280;28042;43.986;22.860;2022-08-07T10:40:24;100902.91;;;35.73;31.65
42385;BME280;28042;43.986;22.860;2022-08-07T10:43:00;100898.16;;;35.77;31.64
42385;BME280;28042;43.986;22.860;2022-08-07T10:45:35;100893.41;;;35.81;31.30
42385;BME280;28042;43.986;22.860;2022-08-07T10:58:16;100881.91;;;35.05;31.79
42385;BME280;28042;43.986;22.860;2022-08-07T11:00:47;100876.97;;;34.90;32.55
42385;BME280;28042;43.986;22.860;2022-08-07T11:03:14;100872.50;;;35.17;31.70
42385;BME280;28042;43.986;22.860;2022-08-07T11:10:47;100859.91;;;35.43;31.41
42385;BME280;28042;43.986;22.860;2022-08-07T11:13:22;100854.38;;;35.78;31.44
42385;BME280;28042;43.986;22.860;2022-08-07T11:15:49;100847.72;;;36.17;30.55
42385;BME280;28042;43.986;22.860;2022-08-07T11:18:20;100847.22;;;35.84;30.35
42385;BME280;28042;43.986;22.860;2022-08-07T11:28:29;100846.81;;;36.64;30.04
42385;BME280;28042;43.986;22.860;2022-08-07T11:33:46;100836.22;;;37.58;28.80
42385;BME280;28042;43.986;22.860;2022-08-07T11:41:22;100832.75;;;37.68;28.21
42385;BME280;28042;43.986;22.860;2022-08-07T11:49:19;100825.25;;;37.37;28.10
42385;BME280;28042;43.986;22.860;2022-08-07T12:05:20;100811.47;;;37.20;28.02
42385;BME280;28042;43.986;22.860;2022-08-07T12:10:21;100815.34;;;36.38;29.14
42385;BME280;28042;43.986;22.860;2022-08-07T12:15:21;100804.31;;;36.52;29.68
42385;BME280;28042;43.986;22.860;2022-08-07T12:17:51;100803.09;;;36.02;31.32
42385;BME280;28042;43.986;22.860;2022-08-07T12:25:51;100803.50;;;34.73;33.13
42385;BME280;28042;43.986;22.860;2022-08-07T12:28:39;100795.44;;;34.87;32.66
42385;BME280;28042;43.986;22.860;2022-08-07T12:33:55;100813.16;;;34.96;33.57
42385;BME280;28042;43.986;22.860;2022-08-07T12:36:21;100808.34;;;34.72;34.20
42385;BME280;28042;43.986;22.860;2022-08-07T12:38:47;100810.09;;;35.17;33.32
42385;BME280;28042;43.986;22.860;2022-08-07T12:41:13;100807.19;;;35.13;32.88
42385;BME280;28042;43.986;22.860;2022-08-07T12:43:39;100798.03;;;34.92;32.79
42385;BME280;28042;43.986;22.860;2022-08-07T12:51:14;100793.09;;;35.77;31.53
42385;BME280;28042;43.986;22.860;2022-08-07T12:58:52;100779.59;;;36.91;29.55
42385;BME280;28042;43.986;22.860;2022-08-07T13:11:24;100750.16;;;37.03;27.78
42385;BME280;28042;43.986;22.860;2022-08-07T13:16:26;100739.94;;;37.21;29.09
42385;BME280;28042;43.986;22.860;2022-08-07T13:18:56;100738.44;;;37.27;28.41
42385;BME280;28042;43.986;22.860;2022-08-07T13:21:25;100734.78;;;37.50;27.97
42385;BME280;28042;43.986;22.860;2022-08-07T13:23:58;100733.81;;;37.19;27.34
42385;BME280;28042;43.986;22.860;2022-08-07T13:26:28;100723.16;;;37.35;27.78
42385;BME280;28042;43.986;22.860;2022-08-07T13:31:41;100727.94;;;36.50;28.72
42385;BME280;28042;43.986;22.860;2022-08-07T13:34:45;100719.78;;;36.88;28.21
42385;BME280;28042;43.986;22.860;2022-08-07T13:39:49;100714.09;;;36.49;28.65
42385;BME280;28042;43.986;22.860;2022-08-07T13:42:15;100709.38;;;36.21;28.94
42385;BME280;28042;43.986;22.860;2022-08-07T13:44:42;100707.06;;;36.43;28.80
42385;BME280;28042;43.986;22.860;2022-08-07T13:47:09;100708.50;;;36.17;28.07
42385;BME280;28042;43.986;22.860;2022-08-07T13:49:38;100711.72;;;36.16;28.29
42385;BME280;28042;43.986;22.860;2022-08-07T13:52:06;100712.91;;;36.50;27.93
42385;BME280;28042;43.986;22.860;2022-08-07T13:54:32;100718.50;;;36.66;28.25
42385;BME280;28042;43.986;22.860;2022-08-07T13:57:01;100719.44;;;36.35;28.12
42385;BME280;28042;43.986;22.860;2022-08-07T13:59:29;100719.66;;;36.26;28.06
42385;BME280;28042;43.986;22.860;2022-08-07T14:01:59;100723.66;;;36.06;28.33
42385;BME280;28042;43.986;22.860;2022-08-07T14:04:36;100688.91;;;36.12;28.32
42385;BME280;28042;43.986;22.860;2022-08-07T14:07:04;100719.53;;;36.38;27.89
42385;BME280;28042;43.986;22.860;2022-08-07T14:09:31;100719.56;;;36.77;27.94
42385;BME280;28042;43.986;22.860;2022-08-07T14:11:58;100720.22;;;36.90;27.29
42385;BME280;28042;43.986;22.860;2022-08-07T14:14:29;100724.53;;;37.22;26.47
42385;BME280;28042;43.986;22.860;2022-08-07T14:16:59;100726.59;;;37.45;26.78
42385;BME280;28042;43.986;22.860;2022-08-07T14:19:35;100726.34;;;36.72;27.86
42385;BME280;28042;43.986;22.860;2022-08-07T14:22:02;100730.41;;;36.52;28.09
42385;BME280;28042;43.986;22.860;2022-08-07T14:24:39;100741.53;;;36.06;28.75
42385;BME280;28042;43.986;22.860;2022-08-07T14:27:06;100751.88;;;35.07;31.82
42385;BME280;28042;43.986;22.860;2022-08-07T14:29:35;100738.03;;;34.38;33.50
42385;BME280;28042;43.986;22.860;2022-08-07T14:32:02;100727.59;;;33.77;33.97
42385;BME280;28042;43.986;22.860;2022-08-07T14:34:30;100755.22;;;33.35;33.91
42385;BME280;28042;43.986;22.860;2022-08-07T14:36:59;100741.69;;;33.28;34.56
42385;BME280;28042;43.986;22.860;2022-08-07T14:39:25;100746.16;;;33.29;34.18
42385;BME280;28042;43.986;22.860;2022-08-07T14:41:51;100760.34;;;33.41;34.05
42385;BME280;28042;43.986;22.860;2022-08-07T14:44:18;100800.31;;;32.86;35.08
42385;BME280;28042;43.986;22.860;2022-08-07T14:46:44;100806.41;;;31.78;39.88
42385;BME280;28042;43.986;22.860;2022-08-07T14:49:10;100815.78;;;31.44;41.38
42385;BME280;28042;43.986;22.860;2022-08-07T14:51:36;100807.19;;;31.41;41.49
42385;BME280;28042;43.986;22.860;2022-08-07T14:54:02;100804.41;;;31.06;46.80
42385;BME280;28042;43.986;22.860;2022-08-07T14:56:30;100819.19;;;30.86;49.87
42385;BME280;28042;43.986;22.860;2022-08-07T14:59:02;100819.53;;;30.19;50.97
42385;BME280;28042;43.986;22.860;2022-08-07T15:01:31;100837.16;;;29.17;55.54
42385;BME280;28042;43.986;22.860;2022-08-07T15:03:58;100884.13;;;28.39;57.21
42385;BME280;28042;43.986;22.860;2022-08-07T15:06:24;100897.41;;;27.93;60.08
42385;BME280;28042;43.986;22.860;2022-08-07T15:08:49;100902.81;;;27.89;59.28
42385;BME280;28042;43.986;22.860;2022-08-07T15:11:25;100900.00;;;28.03;62.08
42385;BME280;28042;43.986;22.860;2022-08-07T15:13:58;100896.34;;;27.88;66.85
42385;BME280;28042;43.986;22.860;2022-08-07T15:16:34;100893.47;;;27.28;71.17
42385;BME280;28042;43.986;22.860;2022-08-07T15:19:01;100892.84;;;26.94;74.19
42385;BME280;28042;43.986;22.860;2022-08-07T15:21:30;100901.94;;;26.86;78.88
42385;BME280;28042;43.986;22.860;2022-08-07T15:23:57;100898.50;;;26.70;82.12
42385;BME280;28042;43.986;22.860;2022-08-07T15:26:32;100903.66;;;26.39;83.87
42385;BME280;28042;43.986;22.860;2022-08-07T15:28:59;100864.66;;;25.76;85.85
42385;BME280;28042;43.986;22.860;2022-08-07T15:31:26;100842.25;;;25.18;90.32
42385;BME280;28042;43.986;22.860;2022-08-07T15:33:55;100833.50;;;24.90;92.49
42385;BME280;28042;43.986;22.860;2022-08-07T15:36:22;100840.28;;;24.79;89.68